createdAt,value
2023-04-14T00:00:02.340Z,92539.37
2023-04-14T00:02:39.978Z,92537.50
2023-04-14T00:05:08.599Z,92530.25
2023-04-14T00:07:36.126Z,92521.53
2023-04-14T00:10:03.595Z,92520.69
2023-04-14T00:12:31.404Z,92525.47
2023-04-14T00:14:58.749Z,92520.22
2023-04-14T00:17:26.114Z,92522.69
2023-04-14T00:19:53.890Z,92526.47
2023-04-14T00:22:22.303Z,92512.44
2023-04-14T00:24:50.946Z,92521.75
2023-04-14T00:27:18.561Z,92511.94
2023-04-14T00:29:45.835Z,92505.62
2023-04-14T00:32:13.098Z,92511.34
2023-04-14T00:34:40.690Z,92507.31
2023-04-14T00:37:08.146Z,92501.78
2023-04-14T00:39:35.579Z,92504.72
2023-04-14T00:42:03.603Z,92504.03
2023-04-14T00:44:30.967Z,92511.28
2023-04-14T00:46:59.509Z,92495.72
2023-04-14T00:49:27.260Z,92495.44
2023-04-14T00:51:56.373Z,92506.44
2023-04-14T00:54:25.133Z,92505.84
2023-04-14T00:56:54.170Z,92503.66
2023-04-14T00:59:22.424Z,92498.25
2023-04-14T01:01:49.830Z,92492.56
2023-04-14T01:04:20.511Z,92498.28
2023-04-14T01:06:48.077Z,92498.72
2023-04-14T01:09:16.641Z,92497.09
2023-04-14T01:12:07.476Z,92490.59
2023-04-14T01:15:08.984Z,92495.03
2023-04-14T01:17:54.663Z,92497.38
2023-04-14T01:20:50.290Z,92492.56
2023-04-14T01:23:30.114Z,92483.91
2023-04-14T01:26:09.772Z,92491.88
2023-04-14T01:29:01.455Z,92483.59
2023-04-14T01:31:31.524Z,92485.69
2023-04-14T01:34:22.582Z,92484.19
2023-04-14T01:37:06.965Z,92471.31
2023-04-14T01:39:43.290Z,92470.66
2023-04-14T01:42:15.471Z,92484.97
2023-04-14T01:44:44.385Z,92479.47
2023-04-14T01:47:15.870Z,92484.50
2023-04-14T01:49:46.256Z,92480.41
2023-04-14T01:52:16.534Z,92480.53
2023-04-14T01:54:48.376Z,92492.19
2023-04-14T01:57:19.509Z,92484.66
2023-04-14T01:59:52.207Z,92468.34
2023-04-14T02:02:21.565Z,92479.50
2023-04-14T02:04:51.190Z,92473.22
2023-04-14T02:07:21.945Z,92450.25
2023-04-14T02:09:51.024Z,92472.13
2023-04-14T02:12:20.433Z,92465.63
2023-04-14T02:14:51.786Z,92472.31
2023-04-14T02:17:21.865Z,92472.66
2023-04-14T02:19:49.889Z,92478.19
2023-04-14T02:22:17.225Z,92464.97
2023-04-14T02:24:44.638Z,92490.75
2023-04-14T02:27:17.930Z,92458.62
2023-04-14T02:29:50.867Z,92484.25
2023-04-14T02:32:25.030Z,92467.69
2023-04-14T02:35:13.883Z,92472.06
2023-04-14T02:37:47.795Z,92470.16
2023-04-14T02:40:25.750Z,92465.28
2023-04-14T02:43:00.569Z,92459.16
2023-04-14T02:45:30.770Z,92470.69
2023-04-14T02:48:03.142Z,92470.28
2023-04-14T02:50:33.427Z,92468.69
2023-04-14T02:53:03.449Z,92471.63
2023-04-14T02:55:31.900Z,92470.91
2023-04-14T02:58:00.321Z,92471.47
2023-04-14T03:00:29.212Z,92473.91
2023-04-14T03:02:58.798Z,92475.72
2023-04-14T03:05:26.783Z,92484.09
2023-04-14T03:07:56.221Z,92482.50
2023-04-14T03:10:25.302Z,92469.38
2023-04-14T03:12:54.931Z,92470.81
2023-04-14T03:15:26.095Z,92467.25
2023-04-14T03:17:57.429Z,92462.22
2023-04-14T03:20:26.613Z,92455.59
2023-04-14T03:22:58.505Z,92448.66
2023-04-14T03:25:33.211Z,92454.56
2023-04-14T03:28:04.108Z,92451.44
2023-04-14T03:30:34.901Z,92459.56
2023-04-14T03:33:06.714Z,92453.63
2023-04-14T03:35:36.965Z,92458.53
2023-04-14T03:38:11.408Z,92455.87
2023-04-14T03:40:48.372Z,92455.47
2023-04-14T03:43:22.798Z,92464.56
2023-04-14T03:45:52.978Z,92456.53
2023-04-14T03:48:26.419Z,92463.59
2023-04-14T03:50:57.873Z,92452.78
2023-04-14T03:53:26.512Z,92443.88
2023-04-14T03:55:59.412Z,92443.19
2023-04-14T03:58:29.644Z,92441.44
2023-04-14T04:00:58.253Z,92433.16
2023-04-14T04:03:27.390Z,92422.47
2023-04-14T04:05:56.137Z,92414.06
2023-04-14T04:08:24.767Z,92406.97
2023-04-14T04:10:55.132Z,92407.50
2023-04-14T04:13:25.519Z,92416.69
2023-04-14T04:15:55.389Z,92409.00
2023-04-14T04:18:24.324Z,92400.16
2023-04-14T04:20:53.489Z,92395.47
2023-04-14T04:23:24.689Z,92404.78
2023-04-14T04:25:53.651Z,92392.47
2023-04-14T04:28:21.745Z,92399.56
2023-04-14T04:30:51.726Z,92402.16
2023-04-14T04:33:21.596Z,92397.75
2023-04-14T04:35:50.961Z,92399.00
2023-04-14T04:38:20.851Z,92404.72
2023-04-14T04:40:49.143Z,92398.50
2023-04-14T04:43:19.313Z,92401.41
2023-04-14T04:46:02.617Z,92393.44
2023-04-14T04:48:31.040Z,92395.28
2023-04-14T04:50:58.548Z,92395.06
2023-04-14T04:53:26.667Z,92406.00
2023-04-14T04:55:56.144Z,92394.03
2023-04-14T04:58:23.554Z,92395.16
2023-04-14T05:00:50.782Z,92393.72
2023-04-14T05:03:18.431Z,92392.44
2023-04-14T05:05:45.723Z,92409.31
2023-04-14T05:08:15.033Z,92403.31
2023-04-14T05:10:44.273Z,92408.44
2023-04-14T05:13:12.251Z,92421.91
2023-04-14T05:15:39.771Z,92407.38
2023-04-14T05:18:08.031Z,92418.91
2023-04-14T05:20:35.430Z,92411.47
2023-04-14T05:23:07.044Z,92437.50
2023-04-14T05:25:36.548Z,92410.44
2023-04-14T05:28:04.378Z,92410.94
2023-04-14T05:30:31.631Z,92398.56
2023-04-14T05:32:59.392Z,92411.56
2023-04-14T05:35:26.935Z,92402.47
2023-04-14T05:37:54.488Z,92387.28
2023-04-14T05:40:22.788Z,92392.09
2023-04-14T05:42:50.754Z,92370.19
2023-04-14T05:45:18.290Z,92372.78
2023-04-14T05:47:47.940Z,92365.84
2023-04-14T05:50:16.788Z,92352.59
2023-04-14T05:52:44.315Z,92344.50
2023-04-14T05:55:12.447Z,92337.78
2023-04-14T05:57:39.810Z,92345.19
2023-04-14T06:00:08.376Z,92342.66
2023-04-14T06:02:41.339Z,92344.84
2023-04-14T06:05:09.554Z,92333.87
2023-04-14T06:07:37.845Z,92328.16
2023-04-14T06:10:06.793Z,92326.09
2023-04-14T06:12:35.154Z,92319.59
2023-04-14T06:15:03.742Z,92324.03
2023-04-14T06:17:32.543Z,92316.69
2023-04-14T06:20:11.276Z,92305.72
2023-04-14T06:22:40.652Z,92305.72
2023-04-14T06:25:08.526Z,92307.03
2023-04-14T06:27:36.926Z,92299.19
2023-04-14T06:30:06.326Z,92301.03
2023-04-14T06:32:34.706Z,92309.63
2023-04-14T06:35:05.200Z,92287.37
2023-04-14T06:37:33.080Z,92309.13
2023-04-14T06:40:01.827Z,92302.03
2023-04-14T06:42:29.343Z,92277.41
2023-04-14T06:44:56.700Z,92269.53
2023-04-14T06:47:25.913Z,92270.28
2023-04-14T06:49:54.580Z,92271.59
2023-04-14T06:52:22.572Z,92254.22
2023-04-14T06:54:51.501Z,92238.25
2023-04-14T06:57:19.101Z,92262.56
2023-04-14T06:59:47.900Z,92248.72
2023-04-14T07:02:16.140Z,92226.13
2023-04-14T07:04:43.878Z,92246.81
2023-04-14T07:07:12.124Z,92239.81
2023-04-14T07:09:42.518Z,92245.53
2023-04-14T07:12:17.795Z,92229.81
2023-04-14T07:14:52.282Z,92228.25
2023-04-14T07:17:20.358Z,92212.34
2023-04-14T07:19:48.000Z,92199.78
2023-04-14T07:22:15.320Z,92226.44
2023-04-14T07:24:42.929Z,92221.47
2023-04-14T07:27:15.802Z,92186.84
2023-04-14T07:29:43.371Z,92185.97
2023-04-14T07:32:13.523Z,92179.59
2023-04-14T07:34:44.072Z,92163.91
2023-04-14T07:37:12.057Z,92159.88
2023-04-14T07:39:39.934Z,92163.72
2023-04-14T07:42:07.516Z,92137.88
2023-04-14T07:44:36.185Z,92142.44
2023-04-14T07:47:03.664Z,92153.41
2023-04-14T07:49:31.770Z,92142.91
2023-04-14T07:52:00.300Z,92180.41
2023-04-14T07:54:29.382Z,92173.66
2023-04-14T07:56:57.906Z,92192.22
2023-04-14T07:59:25.570Z,92186.19
2023-04-14T08:01:53.016Z,92175.88
2023-04-14T08:04:20.829Z,92184.78
2023-04-14T08:06:48.255Z,92179.44
2023-04-14T08:09:15.824Z,92184.81
2023-04-14T08:11:43.768Z,92160.81
2023-04-14T08:14:11.927Z,92168.72
2023-04-14T08:16:40.127Z,92183.38
2023-04-14T08:19:09.487Z,92182.91
2023-04-14T08:21:36.902Z,92174.50
2023-04-14T08:24:04.457Z,92170.06
2023-04-14T08:26:33.294Z,92170.63
2023-04-14T08:29:02.312Z,92187.97
2023-04-14T08:31:30.205Z,92165.06
2023-04-14T08:33:57.912Z,92167.22
2023-04-14T08:36:26.328Z,92138.09
2023-04-14T08:38:54.850Z,92142.06
2023-04-14T08:41:23.674Z,92146.56
2023-04-14T08:43:52.018Z,92147.09
2023-04-14T08:46:20.844Z,92157.16
2023-04-14T08:48:53.620Z,92154.09
2023-04-14T08:51:30.475Z,92144.72
2023-04-14T08:54:00.558Z,92161.28
2023-04-14T08:56:33.773Z,92159.13
2023-04-14T08:59:02.209Z,92163.69
2023-04-14T09:01:30.352Z,92139.62
2023-04-14T09:03:58.793Z,92145.78
2023-04-14T09:06:28.188Z,92141.34
2023-04-14T09:08:55.636Z,92102.22
2023-04-14T09:11:23.017Z,92118.59
2023-04-14T09:13:51.017Z,92112.37
2023-04-14T09:16:19.588Z,92111.41
2023-04-14T09:18:47.531Z,92104.44
2023-04-14T09:21:49.329Z,92103.69
2023-04-14T09:24:06.349Z,92116.66
2023-04-14T09:26:34.120Z,92129.28
2023-04-14T09:29:01.607Z,92129.50
2023-04-14T09:31:30.029Z,92119.56
2023-04-14T09:33:58.367Z,92133.91
2023-04-14T09:36:29.194Z,92135.37
2023-04-14T09:38:57.462Z,92144.78
2023-04-14T09:41:28.185Z,92126.22
2023-04-14T09:43:55.888Z,92134.63
2023-04-14T09:46:23.355Z,92146.53
2023-04-14T09:48:52.513Z,92152.91
2023-04-14T09:51:24.049Z,92160.06
2023-04-14T09:53:53.249Z,92164.78
2023-04-14T09:56:26.243Z,92173.56
2023-04-14T09:59:02.178Z,92178.41
2023-04-14T10:01:32.736Z,92183.47
2023-04-14T10:04:03.013Z,92179.72
2023-04-14T10:06:33.938Z,92198.47
2023-04-14T10:09:02.144Z,92212.47
2023-04-14T10:11:32.987Z,92191.00
2023-04-14T10:14:06.453Z,92206.16
2023-04-14T10:16:35.134Z,92222.59
2023-04-14T10:19:03.880Z,92254.78
2023-04-14T10:21:31.847Z,92256.81
2023-04-14T10:24:00.984Z,92275.53
2023-04-14T10:26:30.176Z,92275.69
2023-04-14T10:28:58.028Z,92275.56
2023-04-14T10:31:27.833Z,92285.81
2023-04-14T10:33:55.701Z,92276.16
2023-04-14T10:36:25.686Z,92309.84
2023-04-14T10:39:05.559Z,92321.53
2023-04-14T10:41:55.180Z,92353.75
2023-04-14T10:44:23.846Z,92316.25
2023-04-14T10:46:52.508Z,92303.81
2023-04-14T10:49:25.366Z,92295.03
2023-04-14T10:51:53.042Z,92296.69
2023-04-14T10:54:20.461Z,92325.56
2023-04-14T10:57:11.353Z,92370.19
2023-04-14T10:59:43.567Z,92380.66
2023-04-14T11:02:28.635Z,92347.69
2023-04-14T11:05:11.787Z,92339.94
2023-04-14T11:07:47.348Z,92391.16
2023-04-14T11:10:23.788Z,92361.38
2023-04-14T11:13:06.108Z,92363.63
2023-04-14T11:15:52.008Z,92374.88
2023-04-14T11:18:33.488Z,92402.09
2023-04-14T11:21:08.479Z,92399.28
2023-04-14T11:23:36.998Z,92448.97
2023-04-14T11:26:13.578Z,92417.31
2023-04-14T11:28:43.082Z,92413.84
2023-04-14T11:31:13.091Z,92430.09
2023-04-14T11:33:42.319Z,92420.91
2023-04-14T11:36:12.649Z,92466.03
2023-04-14T11:38:42.996Z,92456.97
2023-04-14T11:41:11.018Z,92455.25
2023-04-14T11:43:38.871Z,92466.53
2023-04-14T11:46:08.649Z,92475.78
2023-04-14T11:48:38.137Z,92483.78
2023-04-14T11:51:05.838Z,92458.53
2023-04-14T11:53:34.785Z,92467.31
2023-04-14T11:56:02.953Z,92474.56
2023-04-14T11:58:30.587Z,92472.91
2023-04-14T12:00:58.044Z,92462.44
2023-04-14T12:03:28.893Z,92454.41
2023-04-14T12:06:00.059Z,92442.00
2023-04-14T12:08:33.122Z,92463.37
2023-04-14T12:11:17.672Z,92448.97
2023-04-14T12:13:47.381Z,92445.00
2023-04-14T12:16:17.106Z,92468.56
2023-04-14T12:18:45.202Z,92470.53
2023-04-14T12:21:18.679Z,92489.66
2023-04-14T12:23:50.789Z,92485.09
2023-04-14T12:26:19.873Z,92521.94
2023-04-14T12:28:56.091Z,92517.56
2023-04-14T12:31:30.365Z,92515.50
2023-04-14T12:34:04.302Z,92497.53
2023-04-14T12:36:47.959Z,92484.75
2023-04-14T12:39:17.191Z,92480.44
2023-04-14T12:41:45.011Z,92496.31
2023-04-14T12:44:20.930Z,92502.13
2023-04-14T12:46:50.620Z,92503.38
2023-04-14T12:49:36.482Z,92534.50
2023-04-14T12:52:05.560Z,92523.91
2023-04-14T12:54:55.293Z,92537.06
2023-04-14T12:57:23.020Z,92538.38
2023-04-14T12:59:50.892Z,92518.69
2023-04-14T13:02:22.587Z,92535.91
2023-04-14T13:04:50.864Z,92542.72
2023-04-14T13:07:18.848Z,92571.97
2023-04-14T13:09:46.157Z,92555.50
2023-04-14T13:12:13.882Z,92549.50
2023-04-14T13:14:41.552Z,92534.31
2023-04-14T13:17:08.995Z,92545.13
2023-04-14T13:19:36.850Z,92536.47
2023-04-14T13:22:04.191Z,92545.38
2023-04-14T13:24:31.636Z,92640.88
2023-04-14T13:26:59.390Z,92671.75
2023-04-14T13:29:26.796Z,92587.63
2023-04-14T13:31:54.196Z,92669.63
2023-04-14T13:34:21.918Z,92596.09
2023-04-14T13:36:49.493Z,92602.78
2023-04-14T13:39:17.151Z,92572.75
2023-04-14T13:41:44.764Z,92573.94
2023-04-14T13:44:12.969Z,92587.81
2023-04-14T13:46:41.433Z,92536.66
2023-04-14T13:49:09.495Z,92604.66
2023-04-14T13:51:36.894Z,92618.38
2023-04-14T13:54:04.333Z,92612.44
2023-04-14T13:56:31.985Z,92616.88
2023-04-14T13:58:59.497Z,92596.59
2023-04-14T14:01:27.635Z,92622.34
2023-04-14T14:03:55.824Z,92597.22
2023-04-14T14:06:23.385Z,92624.59
2023-04-14T14:09:06.404Z,92591.84
2023-04-14T14:11:34.994Z,92589.34
2023-04-14T14:14:02.562Z,92609.13
2023-04-14T14:16:36.675Z,92606.19
2023-04-14T14:19:07.460Z,92630.59
2023-04-14T14:21:34.878Z,92603.81
2023-04-14T14:24:02.255Z,92619.38
2023-04-14T14:26:30.214Z,92614.94
2023-04-14T14:28:57.802Z,92589.03
2023-04-14T14:31:25.280Z,92635.69
2023-04-14T14:33:52.934Z,92617.31
2023-04-14T14:36:20.601Z,92545.06
2023-04-14T14:38:47.984Z,92535.03
2023-04-14T14:41:15.804Z,92518.59
2023-04-14T14:43:43.246Z,92554.31
2023-04-14T14:46:10.635Z,92539.06
2023-04-14T14:48:38.480Z,92521.63
2023-04-14T14:51:06.197Z,92563.56
2023-04-14T14:53:33.605Z,92572.25
2023-04-14T14:56:01.261Z,92559.97
2023-04-14T14:58:28.666Z,92535.66
2023-04-14T15:00:56.015Z,92509.63
2023-04-14T15:03:24.626Z,92495.06
2023-04-14T15:05:52.790Z,92481.81
2023-04-14T15:08:20.310Z,92474.53
2023-04-14T15:10:48.086Z,92478.50
2023-04-14T15:13:15.500Z,92482.22
2023-04-14T15:15:42.935Z,92507.31
2023-04-14T15:18:11.509Z,92508.78
2023-04-14T15:20:39.494Z,92528.34
2023-04-14T15:23:07.398Z,92533.56
2023-04-14T15:25:35.070Z,92504.56
2023-04-14T15:28:02.527Z,92508.16
2023-04-14T15:30:29.803Z,92508.28
2023-04-14T15:32:58.473Z,92507.63
2023-04-14T15:35:26.707Z,92514.63
2023-04-14T15:37:54.031Z,92516.00
2023-04-14T15:40:22.028Z,92519.97
2023-04-14T15:42:49.357Z,92510.63
2023-04-14T15:45:16.684Z,92502.81
2023-04-14T15:47:46.412Z,92497.34
2023-04-14T15:50:18.780Z,92491.56
2023-04-14T15:52:51.045Z,92474.19
2023-04-14T15:55:18.462Z,92484.56
2023-04-14T15:57:46.415Z,92480.38
2023-04-14T16:00:14.607Z,92486.69
2023-04-14T16:02:42.801Z,92469.87
2023-04-14T16:05:10.747Z,92467.91
2023-04-14T16:07:39.010Z,92466.62
2023-04-14T16:10:07.206Z,92465.19
2023-04-14T16:12:35.445Z,92464.63
2023-04-14T16:15:03.321Z,92455.66
2023-04-14T16:17:31.781Z,92437.88
2023-04-14T16:19:59.313Z,92442.88
2023-04-14T16:22:27.833Z,92449.50
2023-04-14T16:24:55.359Z,92443.38
2023-04-14T16:27:23.044Z,92441.47
2023-04-14T16:29:50.418Z,92434.34
2023-04-14T16:32:18.108Z,92439.81
2023-04-14T16:34:45.985Z,92447.06
2023-04-14T16:37:13.432Z,92451.34
2023-04-14T16:39:41.480Z,92463.44
2023-04-14T16:42:09.674Z,92462.81
2023-04-14T16:44:37.852Z,92471.88
2023-04-14T16:47:05.165Z,92473.88
2023-04-14T16:49:33.021Z,92474.81
2023-04-14T16:52:01.288Z,92474.06
2023-04-14T16:54:28.806Z,92477.81
2023-04-14T16:56:56.423Z,92488.41
2023-04-14T16:59:23.768Z,92488.22
2023-04-14T17:01:51.463Z,92469.59
2023-04-14T17:04:19.381Z,92474.31
2023-04-14T17:06:47.154Z,92475.91
2023-04-14T17:09:14.988Z,92480.13
2023-04-14T17:11:42.741Z,92482.75
2023-04-14T17:14:10.446Z,92478.03
2023-04-14T17:16:38.390Z,92489.00
2023-04-14T17:19:06.252Z,92492.41
2023-04-14T17:21:33.572Z,92505.75
2023-04-14T17:24:01.496Z,92502.91
2023-04-14T17:26:29.448Z,92500.56
2023-04-14T17:28:56.847Z,92498.44
2023-04-14T17:31:24.207Z,92509.69
2023-04-14T17:33:51.967Z,92518.09
2023-04-14T17:36:19.564Z,92523.06
2023-04-14T17:38:47.035Z,92513.34
2023-04-14T17:41:14.755Z,92514.66
2023-04-14T17:43:42.191Z,92520.09
2023-04-14T17:46:10.418Z,92518.94
2023-04-14T17:48:38.523Z,92521.75
2023-04-14T17:51:06.370Z,92537.13
2023-04-14T17:53:33.886Z,92539.25
2023-04-14T17:56:01.619Z,92533.22
2023-04-14T17:58:29.036Z,92534.53
2023-04-14T18:00:56.493Z,92538.09
2023-04-14T18:03:24.176Z,92537.63
2023-04-14T18:05:51.785Z,92544.03
2023-04-14T18:08:19.073Z,92548.63
2023-04-14T18:10:46.728Z,92546.87
2023-04-14T18:13:14.291Z,92546.81
2023-04-14T18:15:42.236Z,92547.06
2023-04-14T18:18:10.346Z,92559.22
2023-04-14T18:20:37.748Z,92562.16
2023-04-14T18:23:05.813Z,92561.03
2023-04-14T18:28:04.262Z,92564.78
2023-04-14T18:30:31.804Z,92570.72
2023-04-14T18:33:01.286Z,92574.66
2023-04-14T18:35:29.415Z,92575.38
2023-04-14T18:37:56.824Z,92582.06
2023-04-14T18:40:27.552Z,92577.84
2023-04-14T18:42:57.463Z,92572.03
2023-04-14T18:45:25.148Z,92578.66
2023-04-14T18:47:52.436Z,92569.44
2023-04-14T18:50:20.735Z,92579.66
2023-04-14T18:52:49.480Z,92571.59
2023-04-14T18:55:17.043Z,92568.09
2023-04-14T18:57:44.363Z,92586.28
2023-04-14T19:00:16.907Z,92576.87
2023-04-14T19:02:44.368Z,92575.59
2023-04-14T19:05:12.249Z,92576.72
2023-04-14T19:07:39.652Z,92574.78
2023-04-14T19:10:07.618Z,92578.19
2023-04-14T19:12:37.974Z,92570.63
2023-04-14T19:15:06.831Z,92564.03
2023-04-14T19:17:34.660Z,92564.91
2023-04-14T19:20:02.485Z,92572.63
2023-04-14T19:22:29.926Z,92565.62
2023-04-14T19:24:57.393Z,92569.75
2023-04-14T19:27:25.323Z,92585.28
2023-04-14T19:29:52.755Z,92590.97
2023-04-14T19:32:20.177Z,92591.19
2023-04-14T19:34:48.401Z,92583.38
2023-04-14T19:37:15.835Z,92584.66
2023-04-14T19:39:43.350Z,92588.28
2023-04-14T19:42:11.002Z,92589.94
2023-04-14T19:44:38.416Z,92591.19
2023-04-14T19:47:06.273Z,92589.81
2023-04-14T19:49:34.328Z,92593.31
2023-04-14T19:52:01.944Z,92599.47
2023-04-14T19:54:29.645Z,92609.22
2023-04-14T19:56:57.428Z,92607.84
2023-04-14T19:59:24.752Z,92605.59
2023-04-14T20:01:52.308Z,92602.53
2023-04-14T20:04:20.917Z,92598.25
2023-04-14T20:06:48.568Z,92603.84
2023-04-14T20:09:16.103Z,92596.75
2023-04-14T20:11:43.837Z,92596.97
2023-04-14T20:14:11.560Z,92593.69
2023-04-14T20:16:38.990Z,92590.50
2023-04-14T20:19:06.731Z,92602.84
2023-04-14T20:21:34.917Z,92613.13
2023-04-14T20:24:02.424Z,92615.87
2023-04-14T20:26:30.219Z,92613.59
2023-04-14T20:28:58.340Z,92624.69
2023-04-14T20:31:25.828Z,92620.25
2023-04-14T20:33:53.697Z,92625.03
2023-04-14T20:36:21.695Z,92624.34
2023-04-14T20:38:49.052Z,92626.03
2023-04-14T20:41:16.875Z,92629.06
2023-04-14T20:43:44.205Z,92624.75
2023-04-14T20:46:11.769Z,92632.69
2023-04-14T20:48:39.627Z,92626.00
2023-04-14T20:51:07.450Z,92620.03
2023-04-14T20:53:35.356Z,92619.44
2023-04-14T20:56:03.366Z,92627.12
2023-04-14T20:58:30.774Z,92630.31
2023-04-14T21:00:58.686Z,92623.94
2023-04-14T21:03:27.604Z,92625.78
2023-04-14T21:05:55.293Z,92630.78
2023-04-14T21:08:22.640Z,92621.53
2023-04-14T21:11:16.353Z,92625.41
2023-04-14T21:15:25.373Z,92618.50
2023-04-14T21:16:26.183Z,92628.56
2023-04-14T21:18:53.552Z,92636.47
2023-04-14T21:21:21.624Z,92624.88
2023-04-14T21:23:49.279Z,92635.38
2023-04-14T21:26:16.934Z,92641.44
2023-04-14T21:28:44.271Z,92639.16
2023-04-14T21:31:11.953Z,92639.16
2023-04-14T21:33:40.129Z,92642.97
2023-04-14T21:36:09.709Z,92650.00
2023-04-14T21:38:38.641Z,92646.59
2023-04-14T21:41:08.058Z,92649.53
2023-04-14T21:43:35.318Z,92652.31
2023-04-14T21:46:03.743Z,92644.63
2023-04-14T21:48:31.463Z,92650.41
2023-04-14T21:50:58.683Z,92642.47
2023-04-14T21:53:26.530Z,92643.81
2023-04-14T21:56:09.249Z,92653.25
2023-04-14T21:58:39.755Z,92651.03
2023-04-14T22:01:10.543Z,92646.87
2023-04-14T22:03:42.213Z,92647.94
2023-04-14T22:06:12.523Z,92644.19
2023-04-14T22:08:41.120Z,92643.91
2023-04-14T22:11:08.650Z,92650.31
2023-04-14T22:13:36.171Z,92652.06
2023-04-14T22:16:03.964Z,92652.81
2023-04-14T22:18:32.107Z,92649.72
2023-04-14T22:20:59.433Z,92657.25
2023-04-14T22:23:27.734Z,92658.25
2023-04-14T22:25:55.039Z,92654.66
2023-04-14T22:28:22.409Z,92655.28
2023-04-14T22:30:50.078Z,92653.19
2023-04-14T22:33:17.485Z,92652.78
2023-04-14T22:35:45.101Z,92655.78
2023-04-14T22:38:12.849Z,92655.28
2023-04-14T22:40:40.252Z,92650.03
2023-04-14T22:43:11.032Z,92650.47
2023-04-14T22:45:39.423Z,92654.84
2023-04-14T22:48:09.025Z,92642.81
2023-04-14T22:50:37.138Z,92644.06
2023-04-14T22:53:05.871Z,92642.75
2023-04-14T22:55:33.486Z,92639.00
2023-04-14T22:58:00.900Z,92642.53
2023-04-14T23:00:28.856Z,92627.78
2023-04-14T23:02:56.331Z,92638.63
2023-04-14T23:05:23.712Z,92642.47
2023-04-14T23:07:51.667Z,92637.13
2023-04-14T23:10:19.416Z,92647.22
2023-04-14T23:12:47.050Z,92652.69
2023-04-14T23:15:14.692Z,92647.13
2023-04-14T23:17:42.102Z,92647.34
2023-04-14T23:20:09.719Z,92657.94
2023-04-14T23:22:37.708Z,92653.06
2023-04-14T23:25:05.456Z,92649.81
2023-04-14T23:27:32.764Z,92652.22
2023-04-14T23:30:00.729Z,92661.50
2023-04-14T23:32:28.076Z,92660.63
2023-04-14T23:34:55.777Z,92664.25
2023-04-14T23:37:24.142Z,92652.91
2023-04-14T23:39:51.505Z,92651.03
2023-04-14T23:42:18.823Z,92666.72
2023-04-14T23:44:46.700Z,92660.63
2023-04-14T23:47:14.292Z,92657.53
2023-04-14T23:49:41.570Z,92660.44
2023-04-14T23:52:09.395Z,92655.34
2023-04-14T23:54:36.805Z,92655.78
2023-04-14T23:57:04.405Z,92656.00
2023-04-14T23:59:32.084Z,92651.34
